BVX326B LSZH-EGLL
Flight info
| Callsign | BVX326B |
|---|---|
| Flight time | 1h 11m |
| Altitude | 40000 |
| Route | VEBIT T10 TORPA DCT REKLA DCT RLP DCT ROTSI DCT KOTUN DCT NINAL DCT ABNUR DCT DIMAL DCT ALESO |
| Aircraft | A359/H-SDE2E3GHIJ3J4J5LM1ORWXY/LB1D1 |
Departure
| Time | 2026-05-05 01:43 |
|---|---|
| Airport | Zürich Airport (LSZH) |
Arrival
| Time | 2026-05-05 02:55 |
|---|---|
| Airport | London Heathrow Airport (EGLL) |
| Time | Latitude | Longitude | Altitude | Speed | Heading |
|---|---|---|---|---|---|
| 2026-05-05 01:32 | 47.45979 | 8.55305 | 1413 ft | 4 kts | 88° |
| 2026-05-05 01:33 | 47.45981 | 8.55268 | 1411 ft | 4 kts | 96° |
| 2026-05-05 01:33 | 47.45983 | 8.55243 | 1405 ft | 0 kts | 95° |
| 2026-05-05 01:37 | 47.45983 | 8.55244 | 1405 ft | 1 kts | 95° |
| 2026-05-05 01:37 | 47.45982 | 8.55266 | 1411 ft | 5 kts | 96° |
| 2026-05-05 01:38 | 47.45977 | 8.55336 | 1413 ft | 7 kts | 96° |
| 2026-05-05 01:38 | 47.45971 | 8.55414 | 1409 ft | 8 kts | 96° |
| 2026-05-05 01:38 | 47.45965 | 8.55502 | 1414 ft | 10 kts | 96° |
| 2026-05-05 01:38 | 47.45958 | 8.55601 | 1412 ft | 10 kts | 96° |
| 2026-05-05 01:39 | 47.45951 | 8.55705 | 1409 ft | 10 kts | 96° |
| 2026-05-05 01:39 | 47.45943 | 8.55813 | 1411 ft | 11 kts | 96° |
| 2026-05-05 01:39 | 47.45924 | 8.55909 | 1416 ft | 8 kts | 138° |
| 2026-05-05 01:39 | 47.45877 | 8.55921 | 1423 ft | 5 kts | 171° |
| 2026-05-05 01:40 | 47.45850 | 8.55967 | 1423 ft | 7 kts | 115° |
| 2026-05-05 01:40 | 47.45836 | 8.56053 | 1418 ft | 10 kts | 100° |
| 2026-05-05 01:40 | 47.45827 | 8.56177 | 1420 ft | 13 kts | 96° |
| 2026-05-05 01:40 | 47.45817 | 8.56307 | 1426 ft | 13 kts | 96° |
| 2026-05-05 01:41 | 47.45807 | 8.56444 | 1423 ft | 14 kts | 95° |
| 2026-05-05 01:41 | 47.45797 | 8.56588 | 1425 ft | 14 kts | 96° |
| 2026-05-05 01:41 | 47.45787 | 8.56738 | 1426 ft | 15 kts | 96° |
| 2026-05-05 01:41 | 47.45777 | 8.56888 | 1429 ft | 14 kts | 96° |
| 2026-05-05 01:42 | 47.45761 | 8.56990 | 1431 ft | 8 kts | 120° |
| 2026-05-05 01:42 | 47.45722 | 8.57030 | 1431 ft | 7 kts | 163° |
| 2026-05-05 01:42 | 47.45668 | 8.57018 | 1431 ft | 8 kts | 214° |
| 2026-05-05 01:42 | 47.45664 | 8.56940 | 1430 ft | 10 kts | 280° |
| 2026-05-05 01:43 | 47.45689 | 8.56625 | 1426 ft | 69 kts | 276° |
| 2026-05-05 01:43 | 47.45772 | 8.55468 | 1410 ft | 155 kts | 276° |
| 2026-05-05 01:43 | 47.45889 | 8.53758 | 2170 ft | 169 kts | 276° |
| 2026-05-05 01:43 | 47.46011 | 8.52055 | 3239 ft | 162 kts | 277° |
| 2026-05-05 01:44 | 47.46129 | 8.50394 | 3776 ft | 166 kts | 276° |
| 2026-05-05 01:44 | 47.46012 | 8.48603 | 3979 ft | 189 kts | 248° |
| 2026-05-05 01:44 | 47.45287 | 8.46861 | 4239 ft | 211 kts | 232° |
| 2026-05-05 01:44 | 47.44334 | 8.45047 | 4526 ft | 235 kts | 231° |
| 2026-05-05 01:45 | 47.43289 | 8.43054 | 4883 ft | 256 kts | 232° |
| 2026-05-05 01:45 | 47.42187 | 8.40917 | 5479 ft | 265 kts | 232° |
| 2026-05-05 01:45 | 47.41069 | 8.38728 | 6299 ft | 268 kts | 232° |
| 2026-05-05 01:45 | 47.39942 | 8.36515 | 7119 ft | 271 kts | 232° |
| 2026-05-05 01:46 | 47.38856 | 8.34219 | 7952 ft | 275 kts | 238° |
| 2026-05-05 01:46 | 47.37925 | 8.31730 | 8851 ft | 278 kts | 241° |
| 2026-05-05 01:46 | 47.37031 | 8.29198 | 9817 ft | 278 kts | 241° |
| 2026-05-05 01:46 | 47.36131 | 8.26652 | 10541 ft | 287 kts | 240° |
| 2026-05-05 01:47 | 47.35171 | 8.23950 | 10940 ft | 307 kts | 241° |
| 2026-05-05 01:47 | 47.34155 | 8.21083 | 11349 ft | 324 kts | 241° |
| 2026-05-05 01:47 | 47.33215 | 8.18013 | 12000 ft | 334 kts | 250° |
| 2026-05-05 01:47 | 47.32789 | 8.14619 | 12750 ft | 342 kts | 266° |
| 2026-05-05 01:48 | 47.32986 | 8.11092 | 13552 ft | 349 kts | 276° |
| 2026-05-05 01:48 | 47.33463 | 8.07560 | 14275 ft | 355 kts | 283° |
| 2026-05-05 01:48 | 47.34469 | 8.04213 | 14930 ft | 363 kts | 300° |
| 2026-05-05 01:48 | 47.35807 | 8.01029 | 15608 ft | 367 kts | 299° |
| 2026-05-05 01:49 | 47.37130 | 7.97786 | 16299 ft | 371 kts | 297° |
| 2026-05-05 01:49 | 47.38392 | 7.94453 | 16997 ft | 374 kts | 295° |
| 2026-05-05 01:49 | 47.39591 | 7.91031 | 17693 ft | 377 kts | 294° |
| 2026-05-05 01:49 | 47.40746 | 7.87537 | 18364 ft | 381 kts | 292° |
| 2026-05-05 01:50 | 47.41880 | 7.83990 | 18965 ft | 384 kts | 292° |
| 2026-05-05 01:50 | 47.43011 | 7.80396 | 19621 ft | 387 kts | 291° |
| 2026-05-05 01:50 | 47.44130 | 7.76821 | 20266 ft | 390 kts | 291° |
| 2026-05-05 01:50 | 47.45276 | 7.73166 | 20920 ft | 394 kts | 291° |
| 2026-05-05 01:51 | 47.46493 | 7.69461 | 21565 ft | 398 kts | 293° |
| 2026-05-05 01:51 | 47.47776 | 7.65809 | 22195 ft | 402 kts | 294° |
| 2026-05-05 01:51 | 47.49082 | 7.62191 | 22827 ft | 406 kts | 294° |
| 2026-05-05 01:51 | 47.50421 | 7.58498 | 23431 ft | 409 kts | 294° |
| 2026-05-05 01:52 | 47.51763 | 7.54769 | 23972 ft | 413 kts | 294° |
| 2026-05-05 01:52 | 47.53105 | 7.51005 | 24502 ft | 416 kts | 293° |
| 2026-05-05 01:52 | 47.54452 | 7.47195 | 25004 ft | 419 kts | 293° |
| 2026-05-05 01:52 | 47.55803 | 7.43352 | 25527 ft | 422 kts | 293° |
| 2026-05-05 01:53 | 47.57158 | 7.39486 | 26078 ft | 424 kts | 292° |
| 2026-05-05 01:53 | 47.58515 | 7.35604 | 26657 ft | 425 kts | 292° |
| 2026-05-05 01:53 | 47.59879 | 7.31698 | 27166 ft | 428 kts | 292° |
| 2026-05-05 01:53 | 47.61252 | 7.27765 | 27666 ft | 431 kts | 292° |
| 2026-05-05 01:54 | 47.62635 | 7.23804 | 28180 ft | 434 kts | 292° |
| 2026-05-05 01:54 | 47.64020 | 7.19817 | 28661 ft | 436 kts | 292° |
| 2026-05-05 01:54 | 47.65413 | 7.15802 | 29133 ft | 439 kts | 292° |
| 2026-05-05 01:54 | 47.66814 | 7.11754 | 29561 ft | 444 kts | 292° |
| 2026-05-05 01:55 | 47.68229 | 7.07657 | 29884 ft | 449 kts | 292° |
| 2026-05-05 01:55 | 47.69661 | 7.03512 | 30298 ft | 451 kts | 292° |
| 2026-05-05 01:55 | 47.71095 | 6.99358 | 30708 ft | 453 kts | 292° |
| 2026-05-05 01:55 | 47.72533 | 6.95185 | 31118 ft | 455 kts | 291° |
| 2026-05-05 01:56 | 47.73973 | 6.91002 | 31524 ft | 456 kts | 291° |
| 2026-05-05 01:56 | 47.75420 | 6.86790 | 31880 ft | 459 kts | 291° |
| 2026-05-05 01:56 | 47.76876 | 6.82557 | 32261 ft | 460 kts | 291° |
| 2026-05-05 01:56 | 47.78334 | 6.78307 | 32624 ft | 462 kts | 291° |
| 2026-05-05 01:57 | 47.79790 | 6.74045 | 32981 ft | 464 kts | 291° |
| 2026-05-05 01:57 | 47.81255 | 6.69740 | 33238 ft | 467 kts | 290° |
| 2026-05-05 01:57 | 47.82724 | 6.65421 | 33603 ft | 468 kts | 290° |
| 2026-05-05 01:57 | 47.84190 | 6.61115 | 34073 ft | 466 kts | 290° |
| 2026-05-05 01:58 | 47.85653 | 6.56807 | 34284 ft | 468 kts | 290° |
| 2026-05-05 01:58 | 47.87126 | 6.52461 | 34488 ft | 472 kts | 290° |
| 2026-05-05 01:58 | 47.88606 | 6.48084 | 34674 ft | 474 kts | 290° |
| 2026-05-05 01:58 | 47.90090 | 6.43691 | 34943 ft | 475 kts | 291° |
| 2026-05-05 01:59 | 47.91573 | 6.39294 | 35209 ft | 475 kts | 291° |
| 2026-05-05 01:59 | 47.93058 | 6.34884 | 35490 ft | 476 kts | 291° |
| 2026-05-05 01:59 | 47.94547 | 6.30455 | 35647 ft | 479 kts | 291° |
| 2026-05-05 01:59 | 47.96039 | 6.26007 | 35853 ft | 481 kts | 291° |
| 2026-05-05 02:00 | 47.98969 | 6.17280 | 35942 ft | 462 kts | 291° |
| 2026-05-05 02:00 | 48.01819 | 6.08768 | 35936 ft | 457 kts | 290° |
| 2026-05-05 02:01 | 48.04637 | 6.00259 | 35936 ft | 457 kts | 290° |
| 2026-05-05 02:01 | 48.07453 | 5.91733 | 35940 ft | 458 kts | 290° |
| 2026-05-05 02:02 | 48.10269 | 5.83198 | 35932 ft | 457 kts | 290° |
| 2026-05-05 02:02 | 48.13075 | 5.74671 | 35930 ft | 456 kts | 290° |
| 2026-05-05 02:03 | 48.15872 | 5.66144 | 35930 ft | 456 kts | 290° |
| 2026-05-05 02:03 | 48.18663 | 5.57607 | 35931 ft | 456 kts | 290° |
| 2026-05-05 02:04 | 48.21446 | 5.49063 | 35932 ft | 457 kts | 290° |
| 2026-05-05 02:04 | 48.24238 | 5.40480 | 35922 ft | 458 kts | 290° |
| 2026-05-05 02:05 | 48.27020 | 5.31877 | 35922 ft | 458 kts | 290° |
| 2026-05-05 02:05 | 48.29772 | 5.23334 | 35919 ft | 458 kts | 290° |
| 2026-05-05 02:06 | 48.32542 | 5.14715 | 35938 ft | 458 kts | 290° |
| 2026-05-05 02:06 | 48.35321 | 5.06026 | 35912 ft | 467 kts | 290° |
| 2026-05-05 02:07 | 48.38166 | 4.97094 | 35902 ft | 480 kts | 290° |
| 2026-05-05 02:07 | 48.41065 | 4.87985 | 35903 ft | 482 kts | 290° |
| 2026-05-05 02:08 | 48.43957 | 4.78882 | 35921 ft | 481 kts | 290° |
| 2026-05-05 02:08 | 48.46841 | 4.69774 | 35940 ft | 482 kts | 290° |
| 2026-05-05 02:09 | 48.48278 | 4.65208 | 36107 ft | 484 kts | 290° |
| 2026-05-05 02:09 | 48.49717 | 4.60624 | 36389 ft | 483 kts | 291° |
| 2026-05-05 02:09 | 48.51152 | 4.56042 | 36655 ft | 483 kts | 291° |
| 2026-05-05 02:09 | 48.52587 | 4.51456 | 36883 ft | 484 kts | 291° |
| 2026-05-05 02:10 | 48.54021 | 4.46863 | 37117 ft | 484 kts | 291° |
| 2026-05-05 02:10 | 48.55456 | 4.42261 | 37352 ft | 484 kts | 291° |
| 2026-05-05 02:10 | 48.56890 | 4.37657 | 37558 ft | 485 kts | 291° |
| 2026-05-05 02:10 | 48.58322 | 4.33051 | 37844 ft | 484 kts | 291° |
| 2026-05-05 02:11 | 48.61180 | 4.23830 | 37901 ft | 485 kts | 291° |
| 2026-05-05 02:11 | 48.64034 | 4.14592 | 37922 ft | 485 kts | 291° |
| 2026-05-05 02:12 | 48.68300 | 4.00715 | 37904 ft | 485 kts | 291° |
| 2026-05-05 02:13 | 48.71187 | 3.91482 | 37903 ft | 487 kts | 295° |
| 2026-05-05 02:13 | 48.75172 | 3.83208 | 37897 ft | 494 kts | 310° |
| 2026-05-05 02:14 | 48.79999 | 3.75771 | 37895 ft | 496 kts | 312° |
| 2026-05-05 02:14 | 48.84949 | 3.68454 | 37894 ft | 496 kts | 312° |
| 2026-05-05 02:15 | 48.89886 | 3.61137 | 37889 ft | 496 kts | 312° |
| 2026-05-05 02:15 | 48.94810 | 3.53775 | 37888 ft | 496 kts | 312° |
| 2026-05-05 02:16 | 48.99720 | 3.46389 | 37898 ft | 497 kts | 312° |
| 2026-05-05 02:16 | 49.04628 | 3.38980 | 37903 ft | 497 kts | 311° |
| 2026-05-05 02:17 | 49.09532 | 3.31559 | 37900 ft | 496 kts | 311° |
| 2026-05-05 02:17 | 49.14426 | 3.24131 | 37902 ft | 496 kts | 311° |
| 2026-05-05 02:18 | 49.19315 | 3.16689 | 37894 ft | 496 kts | 311° |
| 2026-05-05 02:18 | 49.23374 | 3.10494 | 37897 ft | 496 kts | 311° |
| 2026-05-05 02:19 | 49.28259 | 3.03019 | 37900 ft | 497 kts | 311° |
| 2026-05-05 02:19 | 49.33141 | 2.95525 | 37902 ft | 496 kts | 311° |
| 2026-05-05 02:20 | 49.38014 | 2.88023 | 37903 ft | 496 kts | 311° |
| 2026-05-05 02:20 | 49.42877 | 2.80514 | 37905 ft | 496 kts | 311° |
| 2026-05-05 02:21 | 49.47735 | 2.72991 | 37906 ft | 496 kts | 311° |
| 2026-05-05 02:21 | 49.52585 | 2.65457 | 37917 ft | 496 kts | 311° |
| 2026-05-05 02:22 | 49.57441 | 2.57891 | 37912 ft | 497 kts | 311° |
| 2026-05-05 02:22 | 49.62587 | 2.50729 | 37922 ft | 500 kts | 319° |
| 2026-05-05 02:23 | 49.68088 | 2.44155 | 37929 ft | 501 kts | 320° |
| 2026-05-05 02:23 | 49.73643 | 2.37647 | 37927 ft | 501 kts | 320° |
| 2026-05-05 02:24 | 49.79191 | 2.31137 | 37937 ft | 500 kts | 320° |
| 2026-05-05 02:24 | 49.84723 | 2.24607 | 37946 ft | 500 kts | 320° |
| 2026-05-05 02:25 | 49.90260 | 2.18041 | 37938 ft | 502 kts | 320° |
| 2026-05-05 02:25 | 49.95802 | 2.11449 | 37950 ft | 502 kts | 320° |
| 2026-05-05 02:26 | 50.01304 | 2.04886 | 37942 ft | 501 kts | 320° |
| 2026-05-05 02:26 | 50.06827 | 1.98278 | 37947 ft | 501 kts | 320° |
| 2026-05-05 02:27 | 50.12350 | 1.91652 | 37954 ft | 501 kts | 320° |
| 2026-05-05 02:27 | 50.15111 | 1.88331 | 37770 ft | 501 kts | 320° |
| 2026-05-05 02:27 | 50.17752 | 1.84824 | 37505 ft | 498 kts | 314° |
| 2026-05-05 02:27 | 50.20272 | 1.81120 | 37234 ft | 497 kts | 314° |
| 2026-05-05 02:28 | 50.22753 | 1.77399 | 36707 ft | 493 kts | 313° |
| 2026-05-05 02:28 | 50.25206 | 1.73674 | 36080 ft | 491 kts | 312° |
| 2026-05-05 02:28 | 50.27646 | 1.69939 | 35441 ft | 490 kts | 312° |
| 2026-05-05 02:28 | 50.30080 | 1.66204 | 34773 ft | 490 kts | 311° |
| 2026-05-05 02:29 | 50.32516 | 1.62461 | 34038 ft | 491 kts | 311° |
| 2026-05-05 02:29 | 50.34952 | 1.58715 | 33223 ft | 492 kts | 311° |
| 2026-05-05 02:29 | 50.37394 | 1.54958 | 32437 ft | 492 kts | 311° |
| 2026-05-05 02:29 | 50.39831 | 1.51205 | 31719 ft | 491 kts | 312° |
| 2026-05-05 02:30 | 50.42253 | 1.47477 | 31170 ft | 485 kts | 312° |
| 2026-05-05 02:30 | 50.44650 | 1.43782 | 30644 ft | 481 kts | 312° |
| 2026-05-05 02:30 | 50.47023 | 1.40120 | 30096 ft | 477 kts | 312° |
| 2026-05-05 02:30 | 50.49377 | 1.36480 | 29503 ft | 473 kts | 312° |
| 2026-05-05 02:31 | 50.51656 | 1.32796 | 28950 ft | 467 kts | 309° |
| 2026-05-05 02:31 | 50.53830 | 1.29053 | 28422 ft | 461 kts | 309° |
| 2026-05-05 02:31 | 50.55981 | 1.25340 | 27901 ft | 456 kts | 310° |
| 2026-05-05 02:31 | 50.58115 | 1.21677 | 27386 ft | 452 kts | 310° |
| 2026-05-05 02:32 | 50.60288 | 1.18150 | 26889 ft | 448 kts | 313° |
| 2026-05-05 02:32 | 50.62492 | 1.14711 | 26360 ft | 444 kts | 313° |
| 2026-05-05 02:32 | 50.64675 | 1.11297 | 25884 ft | 440 kts | 313° |
| 2026-05-05 02:32 | 50.66829 | 1.07909 | 25380 ft | 436 kts | 313° |
| 2026-05-05 02:33 | 50.68969 | 1.04529 | 24884 ft | 433 kts | 313° |
| 2026-05-05 02:33 | 50.71084 | 1.01180 | 24393 ft | 429 kts | 313° |
| 2026-05-05 02:33 | 50.73183 | 0.97848 | 23897 ft | 426 kts | 313° |
| 2026-05-05 02:33 | 50.75267 | 0.94535 | 23373 ft | 424 kts | 313° |
| 2026-05-05 02:34 | 50.77330 | 0.91249 | 22830 ft | 420 kts | 313° |
| 2026-05-05 02:34 | 50.79379 | 0.87981 | 22340 ft | 416 kts | 313° |
| 2026-05-05 02:34 | 50.81401 | 0.84751 | 21853 ft | 412 kts | 313° |
| 2026-05-05 02:34 | 50.83406 | 0.81545 | 21367 ft | 408 kts | 314° |
| 2026-05-05 02:35 | 50.85392 | 0.78364 | 20875 ft | 405 kts | 314° |
| 2026-05-05 02:35 | 50.87365 | 0.75209 | 20387 ft | 401 kts | 314° |
| 2026-05-05 02:35 | 50.89319 | 0.72072 | 19910 ft | 399 kts | 313° |
| 2026-05-05 02:35 | 50.91258 | 0.68950 | 19427 ft | 396 kts | 313° |
| 2026-05-05 02:36 | 50.93186 | 0.65845 | 18941 ft | 394 kts | 313° |
| 2026-05-05 02:36 | 50.95100 | 0.62759 | 18453 ft | 391 kts | 314° |
| 2026-05-05 02:36 | 50.96998 | 0.59696 | 17922 ft | 388 kts | 314° |
| 2026-05-05 02:36 | 50.98906 | 0.56620 | 17354 ft | 396 kts | 314° |
| 2026-05-05 02:37 | 51.00814 | 0.53531 | 16597 ft | 400 kts | 314° |
| 2026-05-05 02:37 | 51.02803 | 0.50306 | 15673 ft | 405 kts | 314° |
| 2026-05-05 02:37 | 51.04750 | 0.47147 | 14911 ft | 406 kts | 314° |
| 2026-05-05 02:37 | 51.06727 | 0.43935 | 14176 ft | 406 kts | 314° |
| 2026-05-05 02:38 | 51.08711 | 0.40808 | 13850 ft | 395 kts | 316° |
| 2026-05-05 02:38 | 51.10654 | 0.37877 | 13519 ft | 374 kts | 316° |
| 2026-05-05 02:38 | 51.12488 | 0.35110 | 13044 ft | 352 kts | 316° |
| 2026-05-05 02:38 | 51.14211 | 0.32496 | 12612 ft | 332 kts | 316° |
| 2026-05-05 02:39 | 51.15854 | 0.29995 | 12345 ft | 323 kts | 316° |
| 2026-05-05 02:39 | 51.17452 | 0.27555 | 12134 ft | 312 kts | 316° |
| 2026-05-05 02:39 | 51.18996 | 0.25193 | 11864 ft | 305 kts | 315° |
| 2026-05-05 02:39 | 51.20514 | 0.22878 | 11609 ft | 299 kts | 316° |
| 2026-05-05 02:40 | 51.22004 | 0.20588 | 11360 ft | 297 kts | 315° |
| 2026-05-05 02:40 | 51.23489 | 0.18302 | 11101 ft | 296 kts | 315° |
| 2026-05-05 02:40 | 51.24967 | 0.16026 | 10843 ft | 295 kts | 315° |
| 2026-05-05 02:40 | 51.26440 | 0.13757 | 10606 ft | 293 kts | 315° |
| 2026-05-05 02:41 | 51.27887 | 0.11528 | 10440 ft | 284 kts | 315° |
| 2026-05-05 02:41 | 51.29283 | 0.09375 | 10311 ft | 273 kts | 315° |
| 2026-05-05 02:41 | 51.30623 | 0.07308 | 10177 ft | 262 kts | 315° |
| 2026-05-05 02:41 | 51.31905 | 0.05297 | 9967 ft | 255 kts | 313° |
| 2026-05-05 02:42 | 51.32899 | 0.02991 | 9715 ft | 251 kts | 292° |
| 2026-05-05 02:42 | 51.33292 | 0.00296 | 9455 ft | 249 kts | 276° |
| 2026-05-05 02:42 | 51.33587 | -0.05615 | 8883 ft | 249 kts | 274° |
| 2026-05-05 02:43 | 51.33719 | -0.08360 | 8618 ft | 246 kts | 275° |
| 2026-05-05 02:43 | 51.33855 | -0.11079 | 8355 ft | 245 kts | 275° |
| 2026-05-05 02:43 | 51.33991 | -0.13784 | 8117 ft | 243 kts | 275° |
| 2026-05-05 02:43 | 51.34127 | -0.16475 | 7865 ft | 242 kts | 275° |
| 2026-05-05 02:44 | 51.34262 | -0.19142 | 7605 ft | 240 kts | 275° |
| 2026-05-05 02:44 | 51.34396 | -0.21800 | 7359 ft | 239 kts | 275° |
| 2026-05-05 02:44 | 51.34498 | -0.24442 | 7139 ft | 238 kts | 270° |
| 2026-05-05 02:44 | 51.34319 | -0.27074 | 7039 ft | 238 kts | 262° |
| 2026-05-05 02:45 | 51.34099 | -0.29688 | 7011 ft | 237 kts | 268° |
| 2026-05-05 02:45 | 51.34155 | -0.31418 | 7010 ft | 235 kts | 284° |
| 2026-05-05 02:45 | 51.34553 | -0.33950 | 7029 ft | 235 kts | 284° |
| 2026-05-05 02:45 | 51.34879 | -0.36515 | 7020 ft | 236 kts | 281° |
| 2026-05-05 02:46 | 51.35121 | -0.39107 | 7014 ft | 236 kts | 278° |
| 2026-05-05 02:46 | 51.35313 | -0.41725 | 7029 ft | 239 kts | 277° |
| 2026-05-05 02:46 | 51.35479 | -0.44408 | 7026 ft | 245 kts | 276° |
| 2026-05-05 02:46 | 51.35630 | -0.47137 | 7015 ft | 247 kts | 276° |
| 2026-05-05 02:47 | 51.35772 | -0.49874 | 7024 ft | 247 kts | 276° |
| 2026-05-05 02:47 | 51.35909 | -0.52614 | 7015 ft | 247 kts | 276° |
| 2026-05-05 02:47 | 51.36043 | -0.55350 | 7021 ft | 247 kts | 275° |
| 2026-05-05 02:47 | 51.36175 | -0.58090 | 7013 ft | 247 kts | 275° |
| 2026-05-05 02:48 | 51.36305 | -0.60830 | 7012 ft | 247 kts | 275° |
| 2026-05-05 02:48 | 51.36435 | -0.63576 | 7021 ft | 247 kts | 275° |
| 2026-05-05 02:48 | 51.36561 | -0.66246 | 6962 ft | 235 kts | 276° |
| 2026-05-05 02:48 | 51.36719 | -0.68823 | 6708 ft | 231 kts | 278° |
| 2026-05-05 02:49 | 51.36977 | -0.71347 | 6418 ft | 229 kts | 287° |
| 2026-05-05 02:49 | 51.37693 | -0.73575 | 6078 ft | 226 kts | 310° |
| 2026-05-05 02:49 | 51.38891 | -0.75156 | 5795 ft | 222 kts | 328° |
| 2026-05-05 02:49 | 51.40195 | -0.76382 | 5657 ft | 213 kts | 330° |
| 2026-05-05 02:50 | 51.41489 | -0.77446 | 5469 ft | 207 kts | 339° |
| 2026-05-05 02:50 | 51.42861 | -0.77829 | 5369 ft | 196 kts | 360° |
| 2026-05-05 02:50 | 51.44176 | -0.77343 | 5027 ft | 197 kts | 22° |
| 2026-05-05 02:50 | 51.45328 | -0.76187 | 4616 ft | 198 kts | 34° |
| 2026-05-05 02:51 | 51.46201 | -0.74522 | 4207 ft | 197 kts | 62° |
| 2026-05-05 02:51 | 51.46439 | -0.72375 | 3783 ft | 197 kts | 85° |
| 2026-05-05 02:51 | 51.46443 | -0.70136 | 3287 ft | 199 kts | 87° |
| 2026-05-05 02:51 | 51.46431 | -0.67923 | 2782 ft | 195 kts | 87° |
| 2026-05-05 02:52 | 51.46430 | -0.65828 | 2412 ft | 181 kts | 87° |
| 2026-05-05 02:52 | 51.46429 | -0.63900 | 2075 ft | 170 kts | 87° |
| 2026-05-05 02:52 | 51.46435 | -0.62065 | 1838 ft | 155 kts | 87° |
| 2026-05-05 02:52 | 51.46439 | -0.60395 | 1635 ft | 145 kts | 87° |
| 2026-05-05 02:53 | 51.46444 | -0.58816 | 1438 ft | 140 kts | 87° |
| 2026-05-05 02:53 | 51.46448 | -0.57254 | 1256 ft | 141 kts | 88° |
| 2026-05-05 02:53 | 51.46453 | -0.55681 | 1055 ft | 141 kts | 87° |
| 2026-05-05 02:53 | 51.46458 | -0.54110 | 847 ft | 141 kts | 88° |
| 2026-05-05 02:54 | 51.46463 | -0.52559 | 660 ft | 142 kts | 88° |
| 2026-05-05 02:54 | 51.46468 | -0.50985 | 462 ft | 141 kts | 88° |
| 2026-05-05 02:54 | 51.46470 | -0.49421 | 275 ft | 140 kts | 88° |
| 2026-05-05 02:54 | 51.46478 | -0.47870 | 115 ft | 139 kts | 88° |
| 2026-05-05 02:55 | 51.46486 | -0.46414 | 98 ft | 104 kts | 89° |
| 2026-05-05 02:55 | 51.46489 | -0.45659 | 92 ft | 38 kts | 89° |
| 2026-05-05 02:55 | 51.46506 | -0.45366 | 97 ft | 25 kts | 75° |
| 2026-05-05 02:55 | 51.46551 | -0.45167 | 97 ft | 13 kts | 66° |
| 2026-05-05 02:56 | 51.46616 | -0.45082 | 96 ft | 13 kts | 8° |
| 2026-05-05 02:56 | 51.46709 | -0.45072 | 97 ft | 12 kts | 351° |
| 2026-05-05 02:56 | 51.46750 | -0.45177 | 97 ft | 13 kts | 271° |
| 2026-05-05 02:56 | 51.46750 | -0.45334 | 95 ft | 16 kts | 270° |
| 2026-05-05 02:57 | 51.46750 | -0.45517 | 94 ft | 17 kts | 270° |
| 2026-05-05 02:57 | 51.46750 | -0.45708 | 92 ft | 18 kts | 270° |
| 2026-05-05 02:57 | 51.46749 | -0.45840 | 92 ft | 9 kts | 269° |
| 2026-05-05 02:57 | 51.46749 | -0.45955 | 95 ft | 12 kts | 269° |
| 2026-05-05 02:58 | 51.46748 | -0.46103 | 96 ft | 15 kts | 269° |
| 2026-05-05 02:58 | 51.46747 | -0.46262 | 96 ft | 15 kts | 269° |
| 2026-05-05 02:58 | 51.46755 | -0.46379 | 95 ft | 11 kts | 296° |
| 2026-05-05 02:58 | 51.46815 | -0.46468 | 95 ft | 13 kts | 324° |
| 2026-05-05 02:59 | 51.46877 | -0.46535 | 96 ft | 8 kts | 326° |
| 2026-05-05 02:59 | 51.46929 | -0.46592 | 97 ft | 7 kts | 326° |
| 2026-05-05 02:59 | 51.46936 | -0.46599 | 96 ft | 2 kts | 326° |
| 2026-05-05 02:59 | 51.46959 | -0.46622 | 97 ft | 5 kts | 335° |
| 2026-05-05 03:00 | 51.46985 | -0.46604 | 92 ft | 5 kts | 41° |
| 2026-05-05 03:00 | 51.47009 | -0.46555 | 95 ft | 5 kts | 53° |
| 2026-05-05 03:00 | 51.47016 | -0.46539 | 97 ft | 1 kts | 54° |
| 2026-05-05 03:00 | 51.47019 | -0.46533 | 97 ft | 0 kts | 54° |